Time;durP1;ratioP1;P1;durP2;ratioP2;P2;SDS_P1;SDS_P2;PMS_P1;PMS_P2;Temp;Humidity;BMP_temperature;BMP_pressure;BME280_temperature;BME280_humidity;BME280_pressure;Samples;Min_cycle;Max_cycle;Signal;HPM_P1;HPM_P2
2023/07/05 00:01:29;;;;;;;17.00;13.73;;;;;;;15.56;100.00;95952.63;7394786;19;20388;-89
2023/07/05 00:03:57;;;;;;;18.60;13.07;;;;;;;15.47;100.00;95938.84;7394272;19;20379;-89
2023/07/05 00:06:24;;;;;;;17.00;12.90;;;;;;;14.56;100.00;95809.78;7396137;19;20386;-90
2023/07/05 00:08:52;;;;;;;13.50;12.10;;;;;;;14.24;100.00;95794.19;7394906;19;20382;-88
2023/07/05 00:11:20;;;;;;;19.20;13.43;;;;;;;14.96;100.00;95931.50;7396235;19;20382;-89
2023/07/05 00:13:47;;;;;;;13.17;11.77;;;;;;;14.78;100.00;95886.81;7400507;19;20390;-89
2023/07/05 00:16:14;;;;;;;16.07;12.37;;;;;;;13.78;100.00;95748.47;7418379;19;20402;-89
2023/07/05 00:18:41;;;;;;;15.30;12.67;;;;;;;14.66;100.00;95884.38;7415112;19;20446;-89
2023/07/05 00:21:10;;;;;;;15.73;12.57;;;;;;;15.01;100.00;95921.28;7404770;19;20383;-89
2023/07/05 00:23:39;;;;;;;18.70;13.00;;;;;;;14.04;100.00;95796.25;7406120;19;20394;-89
2023/07/05 00:26:07;;;;;;;13.80;12.17;;;;;;;14.41;100.00;95836.19;7405312;19;20394;-89
2023/07/05 00:28:34;;;;;;;13.90;11.70;;;;;;;13.90;100.00;95766.84;7403426;19;20426;-89
2023/07/05 00:31:04;;;;;;;13.43;12.00;;;;;;;14.95;100.00;95912.06;7402472;19;20411;-89
2023/07/05 00:33:31;;;;;;;12.17;10.87;;;;;;;14.90;100.00;95906.31;7403118;19;20408;-89
2023/07/05 00:35:59;;;;;;;15.57;12.40;;;;;;;14.15;100.00;95814.97;7404738;19;20380;-89
2023/07/05 00:38:26;;;;;;;13.20;11.80;;;;;;;14.16;100.00;95811.97;7402759;19;20426;-90
2023/07/05 00:40:54;;;;;;;13.30;11.60;;;;;;;14.71;100.00;95893.97;7405182;19;20909;-89
2023/07/05 00:43:21;;;;;;;14.93;12.67;;;;;;;12.65;100.00;95600.50;7403371;19;20355;-89
2023/07/05 00:46:02;;;;;;;18.00;12.50;;;;;;;14.43;100.00;95881.81;7405572;19;20390;-90
2023/07/05 00:48:40;;;;;;;18.80;12.37;;;;;;;14.28;100.00;95871.34;7402913;19;20426;-89
2023/07/05 00:51:38;;;;;;;18.73;13.33;;;;;;;14.58;100.00;95922.69;7402707;19;20389;-89
2023/07/05 00:54:05;;;;;;;16.57;13.10;;;;;;;13.94;100.00;95820.78;7404690;19;20396;-89
2023/07/05 00:56:53;;;;;;;15.30;12.57;;;;;;;14.14;100.00;95893.19;7402296;19;20374;-89
2023/07/05 00:59:22;;;;;;;18.80;13.90;;;;;;;13.78;100.00;95838.81;7405190;19;20395;-89
2023/07/05 01:01:49;;;;;;;16.53;13.20;;;;;;;13.94;100.00;95860.66;7402084;19;20426;-89
2023/07/05 01:04:32;;;;;;;17.00;12.83;;;;;;;14.06;100.00;95846.41;7401894;19;20393;-90
2023/07/05 01:06:59;;;;;;;18.53;12.73;;;;;;;14.12;100.00;95861.66;7404697;19;20422;-89
2023/07/05 01:09:26;;;;;;;21.10;14.33;;;;;;;14.13;100.00;95865.09;7404705;19;20405;-89
2023/07/05 01:12:23;;;;;;;17.80;15.90;;;;;;;14.35;100.00;95901.47;7404649;19;20477;-89
2023/07/05 01:14:50;;;;;;;19.70;13.80;;;;;;;14.23;100.00;95900.94;7403952;19;20975;-90
2023/07/05 01:17:36;;;;;;;20.30;15.90;;;;;;;14.22;100.00;95902.06;7401920;19;20451;-89
2023/07/05 01:20:38;;;;;;;29.10;17.17;;;;;;;14.44;100.00;95901.25;7404105;19;20404;-90
2023/07/05 01:23:18;;;;;;;34.73;21.87;;;;;;;14.35;100.00;95893.50;7401561;19;20390;-90
2023/07/05 01:26:13;;;;;;;26.83;19.87;;;;;;;13.69;100.00;95827.66;7399619;19;20469;-90
2023/07/05 01:29:20;;;;;;;26.97;16.70;;;;;;;13.80;100.00;95879.84;7398194;19;20485;-90
2023/07/05 01:32:13;;;;;;;22.80;18.03;;;;;;;13.24;100.00;95877.06;7403362;19;20398;-89
2023/07/05 01:34:54;;;;;;;33.43;18.30;;;;;;;12.77;100.00;95755.28;7402180;19;20386;-89
2023/07/05 01:37:37;;;;;;;35.17;19.80;;;;;;;12.87;100.00;95746.75;7399854;19;20405;-89
2023/07/05 01:40:33;;;;;;;32.93;21.70;;;;;;;13.64;100.00;95876.56;7399675;19;20367;-89
2023/07/05 01:43:06;;;;;;;30.17;19.67;;;;;;;13.80;100.00;95887.03;7398075;19;20534;-89
2023/07/05 01:46:09;;;;;;;32.37;18.93;;;;;;;12.69;100.00;95733.19;7401907;19;20395;-90
2023/07/05 01:48:58;;;;;;;38.60;21.10;;;;;;;13.78;100.00;95886.63;7397029;19;20769;-90
2023/07/05 01:51:28;;;;;;;33.63;21.80;;;;;;;13.72;100.00;95882.72;7420312;19;20374;-90
2023/07/05 01:54:15;;;;;;;30.80;20.50;;;;;;;13.22;100.00;95880.06;7431119;19;20377;-90
2023/07/05 01:56:55;;;;;;;40.60;21.93;;;;;;;11.96;100.00;95654.66;7410545;19;20425;-89
2023/07/05 01:59:28;;;;;;;30.00;21.00;;;;;;;13.15;100.00;95823.41;7402791;19;20405;-89
2023/07/05 02:01:58;;;;;;;34.27;20.93;;;;;;;12.24;100.00;95715.34;7401357;19;20406;-90
2023/07/05 02:04:27;;;;;;;36.00;19.07;;;;;;;11.24;100.00;95536.81;7400146;19;20405;-90
2023/07/05 02:06:54;;;;;;;47.80;21.73;;;;;;;11.70;100.00;95592.50;7400983;19;20445;-89
2023/07/05 02:09:21;;;;;;;48.83;23.20;;;;;;;12.47;100.00;95720.69;7398911;19;20384;-89
2023/07/05 02:11:48;;;;;;;36.50;19.67;;;;;;;12.16;100.00;95680.03;7403550;19;20390;-90
2023/07/05 02:14:15;;;;;;;45.90;20.53;;;;;;;12.80;100.00;95797.00;7398453;19;20727;-89
2023/07/05 02:16:42;;;;;;;30.97;19.33;;;;;;;12.56;100.00;95761.00;7403768;19;20401;-90
2023/07/05 02:19:09;;;;;;;35.73;19.87;;;;;;;12.73;100.00;95753.34;7398704;19;20778;-89
2023/07/05 02:21:37;;;;;;;36.60;20.50;;;;;;;11.96;100.00;95625.53;7400337;19;20755;-89
2023/07/05 02:24:05;;;;;;;42.77;22.73;;;;;;;12.79;100.00;95745.84;7400211;19;20410;-89
2023/07/05 02:26:33;;;;;;;41.90;22.27;;;;;;;12.90;100.00;95736.19;7400639;19;21160;-89
2023/07/05 02:29:00;;;;;;;42.67;25.67;;;;;;;13.10;100.00;95757.34;7398938;19;20389;-89
2023/07/05 02:31:29;;;;;;;45.00;27.03;;;;;;;12.70;100.00;95697.59;7400573;19;20747;-90
2023/07/05 02:33:56;;;;;;;44.07;24.77;;;;;;;13.60;100.00;95849.16;7399975;19;20399;-90
2023/07/05 02:36:24;;;;;;;52.80;26.70;;;;;;;12.75;100.00;95731.75;7398483;19;20393;-91
2023/07/05 02:38:54;;;;;;;38.70;22.83;;;;;;;13.52;100.00;95847.53;7398470;19;20432;-90
2023/07/05 02:41:21;;;;;;;45.70;22.67;;;;;;;12.75;100.00;95726.47;7399797;19;20912;-90
2023/07/05 02:43:50;;;;;;;39.33;20.53;;;;;;;12.57;100.00;95688.28;7397016;19;20388;-90
2023/07/05 02:46:17;;;;;;;31.30;21.60;;;;;;;12.78;100.00;95704.53;7400210;19;20417;-90
2023/07/05 02:48:45;;;;;;;19.10;11.80;;;;;;;13.59;100.00;95829.78;7398086;19;20393;-90
2023/07/05 02:51:12;;;;;;;12.40;9.80;;;;;;;13.81;100.00;95852.13;7399799;19;20762;-89
2023/07/05 02:53:39;;;;;;;11.40;10.20;;;;;;;13.90;100.00;95871.25;7398771;19;20484;-90
2023/07/05 02:56:06;;;;;;;13.40;11.57;;;;;;;12.90;100.00;95720.25;7400817;19;20421;-90
2023/07/05 02:58:33;;;;;;;19.20;12.70;;;;;;;13.44;100.00;95812.13;7397770;19;20407;-90
2023/07/05 03:01:00;;;;;;;15.70;11.40;;;;;;;13.14;100.00;95758.16;7401078;19;20398;-90
2023/07/05 03:03:27;;;;;;;14.87;11.83;;;;;;;13.57;100.00;95816.09;7397726;19;20936;-89
2023/07/05 03:05:58;;;;;;;21.47;14.33;;;;;;;13.78;100.00;95857.41;7400141;19;20378;-90
2023/07/05 03:08:28;;;;;;;25.50;15.80;;;;;;;13.90;100.00;95850.00;7396426;19;20936;-90
2023/07/05 03:10:55;;;;;;;34.47;18.27;;;;;;;13.52;100.00;95848.28;7397112;19;20791;-90
2023/07/05 03:13:26;;;;;;;28.87;16.80;;;;;;;13.17;100.00;95813.19;7398550;19;20410;-90
2023/07/05 03:15:53;;;;;;;27.90;16.80;;;;;;;12.85;100.00;95776.28;7396411;19;20365;-90
2023/07/05 03:18:21;;;;;;;23.77;15.50;;;;;;;13.53;100.00;95844.50;7397004;19;20464;-90
2023/07/05 03:20:49;;;;;;;27.73;17.77;;;;;;;13.16;100.00;95843.50;7397234;19;20391;-90
2023/07/05 03:23:16;;;;;;;30.30;17.87;;;;;;;13.00;100.00;95817.09;7398009;19;20389;-90
2023/07/05 03:26:02;;;;;;;23.70;16.93;;;;;;;13.23;100.00;95848.97;7398230;19;20419;-90
2023/07/05 03:28:32;;;;;;;15.83;12.83;;;;;;;13.21;100.00;95843.22;7398237;19;20502;-90
2023/07/05 03:31:05;;;;;;;20.27;14.43;;;;;;;12.45;100.00;95752.09;7397387;19;20388;-90
2023/07/05 03:33:34;;;;;;;17.50;14.80;;;;;;;12.98;100.00;95828.06;7423342;19;20388;-90
2023/07/05 03:36:19;;;;;;;24.53;16.97;;;;;;;13.09;100.00;95824.78;7399259;19;20393;-90
2023/07/05 03:38:49;;;;;;;16.70;12.27;;;;;;;13.19;100.00;95809.06;7396574;19;20392;-90
2023/07/05 03:41:21;;;;;;;13.47;12.07;;;;;;;13.12;100.00;95794.91;7400550;19;20373;-89
2023/07/05 03:43:53;;;;;;;14.70;12.33;;;;;;;12.67;100.00;95748.66;7398555;19;20382;-89
2023/07/05 03:46:20;;;;;;;12.60;10.87;;;;;;;12.78;100.00;95784.09;7399876;19;20350;-90
2023/07/05 03:48:48;;;;;;;14.10;12.70;;;;;;;12.46;100.00;95722.56;7404800;19;20757;-90
2023/07/05 03:51:18;;;;;;;16.00;11.97;;;;;;;13.29;100.00;95819.09;7411633;19;20403;-90
2023/07/05 03:53:55;;;;;;;12.30;11.00;;;;;;;13.39;100.00;95828.38;7427473;19;20978;-90
2023/07/05 03:56:23;;;;;;;14.03;11.70;;;;;;;13.34;100.00;95788.06;7410860;19;20406;-90
2023/07/05 03:58:50;;;;;;;16.17;11.07;;;;;;;13.61;100.00;95814.25;7410326;19;20400;-90
2023/07/05 04:01:21;;;;;;;15.50;10.93;;;;;;;13.54;100.00;95822.13;7406124;19;20353;-91
2023/07/05 04:03:52;;;;;;;13.40;11.80;;;;;;;13.36;100.00;95823.00;7407911;19;20420;-91
2023/07/05 04:06:21;;;;;;;13.53;11.43;;;;;;;13.11;100.00;95780.88;7407735;19;20392;-90
2023/07/05 04:08:48;;;;;;;18.10;11.40;;;;;;;13.72;100.00;95846.28;7405122;19;20381;-90
2023/07/05 04:11:15;;;;;;;11.80;10.60;;;;;;;12.69;100.00;95675.59;7403664;19;20371;-89
2023/07/05 04:13:44;;;;;;;12.33;11.03;;;;;;;13.19;100.00;95745.38;7405245;19;20373;-90
2023/07/05 04:16:14;;;;;;;14.00;12.03;;;;;;;13.82;100.00;95844.94;7407028;19;20390;-90
2023/07/05 04:18:42;;;;;;;11.27;9.70;;;;;;;13.43;100.00;95839.03;7398792;19;20421;-90
2023/07/05 04:21:11;;;;;;;14.80;11.30;;;;;;;13.05;100.00;95776.97;7401996;19;20395;-89
2023/07/05 04:23:40;;;;;;;14.67;12.10;;;;;;;13.63;100.00;95845.03;7400521;19;20469;-89
2023/07/05 04:26:13;;;;;;;18.43;14.07;;;;;;;13.31;100.00;95777.03;7400478;19;20884;-89
2023/07/05 04:28:41;;;;;;;16.83;13.53;;;;;;;13.08;100.00;95765.63;7397627;19;20465;-89
2023/07/05 04:31:16;;;;;;;19.30;14.00;;;;;;;13.46;100.00;95839.09;7404408;19;20420;-89
2023/07/05 04:33:44;;;;;;;21.57;13.87;;;;;;;12.92;100.00;95731.28;7401865;19;20385;-88
2023/07/05 04:36:11;;;;;;;15.93;14.17;;;;;;;13.48;100.00;95797.00;7401926;19;20381;-89
2023/07/05 04:38:55;;;;;;;16.83;13.30;;;;;;;13.39;100.00;95838.22;7401911;19;20378;-89
2023/07/05 04:41:22;;;;;;;19.70;13.87;;;;;;;12.92;100.00;95693.38;7401652;19;20960;-90
2023/07/05 04:43:51;;;;;;;20.40;13.73;;;;;;;13.93;100.00;95763.47;7401408;19;20359;-89
2023/07/05 04:46:19;;;;;;;20.60;14.00;;;;;;;12.34;100.00;95620.13;7401488;19;20385;-90
2023/07/05 04:48:46;;;;;;;19.73;14.10;;;;;;;13.19;100.00;95675.59;7400748;19;20397;-89
2023/07/05 04:51:13;;;;;;;22.40;14.53;;;;;;;12.56;100.00;95686.75;7401152;19;20905;-89
2023/07/05 04:53:41;;;;;;;19.47;14.20;;;;;;;12.71;100.00;95649.50;7401516;19;20995;-89
2023/07/05 04:56:12;;;;;;;21.97;14.50;;;;;;;14.79;100.00;95938.91;7401254;19;20377;-89
2023/07/05 04:58:39;;;;;;;27.17;15.03;;;;;;;14.11;100.00;95886.72;7397249;19;20401;-90
2023/07/05 05:01:09;;;;;;;17.90;10.73;;;;;;;13.82;100.00;95794.44;7400244;19;20386;-89
2023/07/05 05:03:36;;;;;;;16.70;11.70;;;;;;;14.81;100.00;95917.25;7399679;19;20730;-90
2023/07/05 05:06:03;;;;;;;16.00;12.93;;;;;;;14.28;100.00;95816.28;7407360;19;20407;-91
2023/07/05 05:08:30;;;;;;;12.90;9.87;;;;;;;15.21;100.00;95937.84;7430262;19;20422;-94
2023/07/05 05:11:00;;;;;;;13.80;9.90;;;;;;;15.02;100.00;95888.22;7428917;19;20400;-89
2023/07/05 05:13:29;;;;;;;11.93;10.20;;;;;;;14.92;100.00;95888.84;7401066;19;20386;-89
2023/07/05 05:15:57;;;;;;;12.00;10.63;;;;;;;15.24;100.00;95897.19;7399835;19;20396;-89
2023/07/05 05:18:28;;;;;;;16.40;10.67;;;;;;;14.50;100.00;95769.44;7401632;19;20871;-90
2023/07/05 05:20:55;;;;;;;11.70;10.20;;;;;;;14.98;100.00;95801.44;7400929;19;20374;-89
2023/07/05 05:23:23;;;;;;;11.93;10.27;;;;;;;14.23;100.00;95752.00;7399819;19;20917;-89
2023/07/05 05:25:50;;;;;;;11.20;9.90;;;;;;;14.24;100.00;95759.63;7401565;19;20390;-89
2023/07/05 05:28:17;;;;;;;11.50;9.73;;;;;;;15.40;100.00;95912.16;7402573;19;20416;-89
2023/07/05 05:30:45;;;;;;;11.67;10.47;;;;;;;14.64;100.00;95790.09;7404710;19;21115;-89
2023/07/05 05:33:14;;;;;;;15.40;10.57;;;;;;;14.27;100.00;95718.25;7401295;19;20382;-89
2023/07/05 05:35:51;;;;;;;12.60;10.80;;;;;;;15.24;100.00;95821.84;7399777;19;20371;-89
2023/07/05 05:38:19;;;;;;;11.93;10.63;;;;;;;15.95;100.00;95939.66;7402090;19;20524;-89
2023/07/05 05:40:50;;;;;;;14.07;10.40;;;;;;;15.47;100.00;95832.28;7402330;19;20394;-90
2023/07/05 05:43:21;;;;;;;11.97;9.87;;;;;;;16.54;100.00;95970.53;7398817;19;20387;-89
2023/07/05 05:45:48;;;;;;;13.17;8.70;;;;;;;16.51;100.00;95946.47;7403033;19;20478;-91
2023/07/05 05:48:15;;;;;;;12.53;11.33;;;;;;;16.50;100.00;95934.28;7399839;19;20976;-90
2023/07/05 05:50:42;;;;;;;16.33;9.10;;;;;;;16.17;100.00;95874.66;7403416;19;20347;-89
2023/07/05 05:53:12;;;;;;;11.13;9.90;;;;;;;16.50;100.00;95905.69;7402063;19;20395;-90
2023/07/05 05:55:40;;;;;;;11.30;9.33;;;;;;;16.28;100.00;95869.38;7404052;19;20384;-89
2023/07/05 05:58:08;;;;;;;11.60;10.40;;;;;;;16.44;100.00;95909.09;7400481;19;20428;-90
2023/07/05 06:00:36;;;;;;;11.07;9.20;;;;;;;14.93;100.00;95676.66;7405035;19;20383;-89
2023/07/05 06:03:06;;;;;;;12.73;8.73;;;;;;;16.42;100.00;95914.78;7399427;19;20739;-89
2023/07/05 06:05:34;;;;;;;9.90;8.90;;;;;;;15.83;100.00;95839.41;7403228;19;20739;-88
2023/07/05 06:08:01;;;;;;;14.50;8.90;;;;;;;16.10;100.00;95831.94;7402805;19;20431;-88
2023/07/05 06:10:29;;;;;;;15.00;10.53;;;;;;;16.48;100.00;95905.31;7404851;19;20391;-87
2023/07/05 06:12:56;;;;;;;8.30;7.50;;;;;;;16.59;100.00;95912.59;7407131;19;20388;-87
2023/07/05 06:15:23;;;;;;;11.10;8.77;;;;;;;15.65;100.00;95764.69;7421534;19;20387;-87
2023/07/05 06:17:50;;;;;;;11.43;9.33;;;;;;;15.15;100.00;95701.53;7418052;19;20434;-87
2023/07/05 06:20:17;;;;;;;13.13;9.53;;;;;;;16.51;100.00;95901.13;7420148;19;20388;-87
2023/07/05 06:22:44;;;;;;;9.63;8.67;;;;;;;16.66;100.00;95916.03;7420938;19;20388;-87
2023/07/05 06:25:11;;;;;;;10.40;9.07;;;;;;;16.52;100.00;95867.94;7416720;19;20914;-87
2023/07/05 06:27:39;;;;;;;11.43;8.43;;;;;;;16.87;100.00;95928.75;7419078;19;20416;-87
2023/07/05 06:30:09;;;;;;;18.00;9.83;;;;;;;17.14;100.00;95982.66;7421203;19;20399;-87
2023/07/05 06:32:36;;;;;;;10.97;8.13;;;;;;;16.79;100.00;95945.88;7400424;19;20415;-87
2023/07/05 06:35:03;;;;;;;12.93;7.13;;;;;;;16.99;100.00;95995.19;7401043;19;20399;-88
2023/07/05 06:37:31;;;;;;;8.97;8.07;;;;;;;16.87;100.00;95995.53;7396914;19;20414;-87
2023/07/05 06:39:57;;;;;;;18.27;8.20;;;;;;;15.63;100.00;95824.81;7398964;19;20419;-88
2023/07/05 06:42:26;;;;;;;9.00;7.47;;;;;;;16.08;100.00;95874.22;7399494;19;20444;-87
2023/07/05 06:45:01;;;;;;;11.03;7.80;;;;;;;16.22;100.00;95879.63;7397878;19;20426;-87
2023/07/05 06:47:28;;;;;;;13.73;8.60;;;;;;;15.49;100.00;95760.72;7419005;19;20448;-91
2023/07/05 06:49:58;;;;;;;11.87;8.90;;;;;;;16.90;100.00;95984.09;7405200;19;20452;-88
2023/07/05 06:52:25;;;;;;;7.33;6.63;;;;;;;16.87;100.00;95952.78;7409755;19;20402;-88
2023/07/05 06:54:52;;;;;;;9.87;6.40;;;;;;;16.25;100.00;95870.88;7427457;19;20412;-88
2023/07/05 06:57:19;;;;;;;9.30;7.13;;;;;;;17.04;100.00;95960.09;7426561;19;20386;-87
2023/07/05 06:59:46;;;;;;;8.30;7.37;;;;;;;16.63;100.00;95903.47;7426610;19;20409;-87
2023/07/05 07:02:13;;;;;;;7.70;6.93;;;;;;;15.53;100.00;95734.88;7417436;19;20380;-87
2023/07/05 07:04:41;;;;;;;7.30;6.60;;;;;;;16.80;100.00;95920.72;7398567;19;21169;-87
2023/07/05 07:07:08;;;;;;;11.23;6.10;;;;;;;16.74;100.00;95912.31;7399634;19;20437;-87
2023/07/05 07:09:35;;;;;;;7.47;5.63;;;;;;;16.28;100.00;95848.03;7397435;19;20375;-87
2023/07/05 07:12:03;;;;;;;6.23;5.37;;;;;;;16.77;100.00;95930.25;7400681;19;20407;-87
2023/07/05 07:14:30;;;;;;;6.53;5.87;;;;;;;15.68;100.00;95765.06;7397344;19;21043;-89
2023/07/05 07:16:57;;;;;;;7.77;6.97;;;;;;;16.94;100.00;95949.38;7398541;19;20465;-86
2023/07/05 07:19:24;;;;;;;5.73;5.23;;;;;;;16.75;100.00;95940.53;7398293;19;20398;-89
2023/07/05 07:21:51;;;;;;;8.40;4.83;;;;;;;15.74;100.00;95801.63;7398999;19;20418;-86
2023/07/05 07:24:19;;;;;;;6.50;5.07;;;;;;;16.79;100.00;95948.56;7394692;19;20404;-87
2023/07/05 07:26:46;;;;;;;10.33;5.30;;;;;;;15.35;100.00;95718.78;7397959;19;20829;-87
2023/07/05 07:29:13;;;;;;;5.67;5.17;;;;;;;15.90;100.00;95812.81;7394542;19;20379;-87
2023/07/05 07:31:40;;;;;;;5.60;4.80;;;;;;;17.11;100.00;95978.06;7396345;19;20692;-87
2023/07/05 07:34:07;;;;;;;8.57;5.07;;;;;;;16.44;100.00;95872.50;7396953;19;20375;-87
2023/07/05 07:36:36;;;;;;;5.10;4.47;;;;;;;17.29;100.00;95983.47;7395922;19;20413;-87
2023/07/05 07:39:04;;;;;;;5.83;4.20;;;;;;;16.73;100.00;95942.06;7397567;19;20397;-87
2023/07/05 07:41:36;;;;;;;7.60;5.27;;;;;;;16.82;100.00;95953.13;7398656;19;20393;-87
2023/07/05 07:44:06;;;;;;;6.67;4.10;;;;;;;17.09;100.00;95973.09;7396472;19;20403;-88
2023/07/05 07:46:34;;;;;;;8.60;4.50;;;;;;;17.18;100.00;95972.72;7395663;19;20890;-87
2023/07/05 07:49:04;;;;;;;5.30;4.20;;;;;;;16.79;100.00;95932.53;7397424;19;20394;-87
2023/07/05 07:51:35;;;;;;;4.70;4.30;;;;;;;16.49;100.00;95879.38;7396456;19;20474;-87
2023/07/05 07:54:08;;;;;;;3.77;3.47;;;;;;;16.72;100.00;95911.16;7400908;19;20748;-87
2023/07/05 07:56:36;;;;;;;5.50;4.40;;;;;;;16.62;100.00;95896.59;7399037;19;20391;-87
2023/07/05 07:59:06;;;;;;;5.80;3.70;;;;;;;17.21;100.00;95976.56;7396736;19;20404;-87
2023/07/05 08:01:37;;;;;;;8.50;3.90;;;;;;;17.11;100.00;95951.34;7398854;19;20382;-87
2023/07/05 08:04:07;;;;;;;3.70;3.40;;;;;;;17.39;100.00;95986.16;7399692;19;20918;-87
2023/07/05 08:06:37;;;;;;;4.80;4.20;;;;;;;17.57;100.00;95990.78;7398153;19;20434;-87
2023/07/05 08:09:07;;;;;;;3.60;3.20;;;;;;;16.42;100.00;95817.97;7395671;19;20402;-86
2023/07/05 08:11:35;;;;;;;3.60;3.30;;;;;;;17.56;100.00;96002.63;7393797;19;20391;-87
2023/07/05 08:14:02;;;;;;;5.40;3.73;;;;;;;17.10;100.00;95934.56;7398752;19;20401;-87
2023/07/05 08:16:29;;;;;;;5.70;3.50;;;;;;;17.61;100.00;96004.91;7396993;19;20394;-87
2023/07/05 08:19:00;;;;;;;5.63;4.20;;;;;;;16.96;100.00;95913.16;7394574;19;20397;-87
2023/07/05 08:21:27;;;;;;;5.10;4.30;;;;;;;17.16;100.00;95944.88;7401442;19;20373;-87
2023/07/05 08:23:54;;;;;;;5.73;3.67;;;;;;;17.40;100.00;95962.88;7424419;19;20907;-89
2023/07/05 08:26:21;;;;;;;4.37;3.97;;;;;;;17.81;100.00;95994.66;7421167;19;20459;-87
2023/07/05 08:28:49;;;;;;;4.10;2.90;;;;;;;17.70;100.00;95957.97;7399377;19;20380;-88
2023/07/05 08:31:16;;;;;;;2.70;2.50;;;;;;;17.64;100.00;95943.44;7400370;19;20458;-87
2023/07/05 08:33:44;;;;;;;3.43;2.83;;;;;;;18.39;100.00;96004.97;7398890;19;20403;-87
2023/07/05 08:36:15;;;;;;;4.30;3.50;;;;;;;18.46;100.00;96001.53;7406153;19;20407;-87
2023/07/05 08:38:46;;;;;;;3.97;3.00;;;;;;;18.69;100.00;95996.50;7404907;19;20435;-87
2023/07/05 08:41:43;;;;;;;6.20;2.90;;;;;;;19.07;100.00;96002.91;7407715;19;20407;-87
2023/07/05 08:44:25;;;;;;;3.37;3.07;;;;;;;19.09;100.00;96011.31;7405401;19;20394;-88
2023/07/05 08:46:59;;;;;;;3.27;2.80;;;;;;;19.19;100.00;96012.44;7402463;19;20487;-88
2023/07/05 08:49:33;;;;;;;3.10;2.20;;;;;;;18.75;100.00;95960.16;7407396;19;20381;-87
2023/07/05 08:52:01;;;;;;;2.70;2.50;;;;;;;18.95;100.00;96010.59;7402776;19;20360;-87
2023/07/05 08:54:32;;;;;;;2.53;2.30;;;;;;;18.59;100.00;95970.53;7410237;19;20726;-87
2023/07/05 08:57:23;;;;;;;3.87;2.47;;;;;;;17.64;100.00;95886.53;7407600;19;20451;-87
2023/07/05 08:59:59;;;;;;;5.70;3.20;;;;;;;18.08;100.00;95995.06;7406745;19;20886;-87
2023/07/05 09:02:27;;;;;;;4.37;2.87;;;;;;;18.31;100.00;95995.44;7408997;19;20906;-87
2023/07/05 09:04:57;;;;;;;2.53;2.33;;;;;;;17.75;100.00;95930.06;7403263;19;20378;-87
2023/07/05 09:08:00;;;;;;;3.20;2.10;;;;;;;18.30;100.00;96029.47;7408014;19;20774;-88
2023/07/05 09:10:37;;;;;;;1.93;1.83;;;;;;;18.12;100.00;96006.50;7403252;19;20387;-88
2023/07/05 09:13:20;;;;;;;2.70;2.50;;;;;;;18.02;100.00;96005.34;7405093;19;20388;-87
2023/07/05 09:16:08;;;;;;;3.30;2.10;;;;;;;18.01;100.00;95980.50;7401392;19;20920;-87
2023/07/05 09:18:53;;;;;;;2.67;2.47;;;;;;;18.11;100.00;96007.66;7401404;19;20444;-87
2023/07/05 09:21:38;;;;;;;3.53;3.23;;;;;;;18.24;100.00;96030.97;7401804;19;20350;-87
2023/07/05 09:24:17;;;;;;;4.37;3.90;;;;;;;17.76;100.00;95973.63;7402102;19;20394;-87
2023/07/05 09:26:55;;;;;;;3.37;3.07;;;;;;;17.79;100.00;95988.94;7403302;19;20411;-87
2023/07/05 09:29:47;;;;;;;3.60;3.00;;;;;;;17.83;100.00;96035.94;7404467;19;20386;-88
2023/07/05 09:32:18;;;;;;;3.27;2.80;;;;;;;17.80;100.00;96049.31;7403944;19;20898;-87
2023/07/05 09:34:50;;;;;;;3.70;3.20;;;;;;;17.21;100.00;96014.72;7406231;19;20368;-88
2023/07/05 09:37:21;;;;;;;5.07;4.20;;;;;;;17.26;100.00;96067.81;7401086;19;20413;-89
2023/07/05 09:40:16;;;;;;;6.43;3.93;;;;;;;16.02;100.00;96083.72;7406022;19;20390;-93
2023/07/05 09:43:00;;;;;;;2.63;2.33;;;;;;;15.30;100.00;95990.81;7412268;19;20921;-93
2023/07/05 09:45:27;;;;;;;4.30;2.30;;;;;;;15.12;100.00;96008.50;7404415;19;20418;-93
2023/07/05 09:47:59;;;;;;;1.90;1.73;;;;;;;15.08;100.00;96025.19;7402184;19;20397;-92
2023/07/05 09:50:27;;;;;;;3.10;2.10;;;;;;;13.95;100.00;95843.59;7401921;19;20392;-93
2023/07/05 09:53:02;;;;;;;2.67;2.33;;;;;;;15.16;100.00;96015.41;7405374;19;20735;-93
2023/07/05 09:55:30;;;;;;;3.20;2.70;;;;;;;14.69;100.00;95923.59;7404079;19;20405;-93
2023/07/05 09:57:58;;;;;;;3.00;2.43;;;;;;;15.46;100.00;96012.69;7397864;19;20953;-92
2023/07/05 10:00:35;;;;;;;3.20;1.93;;;;;;;15.47;100.00;96014.22;7401269;19;20339;-93
2023/07/05 10:03:09;;;;;;;2.90;2.40;;;;;;;15.25;100.00;95991.16;7418058;19;20412;-91
2023/07/05 10:05:37;;;;;;;2.50;2.07;;;;;;;14.75;100.00;95990.56;7408570;19;20401;-92
2023/07/05 10:08:15;;;;;;;3.63;2.10;;;;;;;14.38;100.00;95906.06;7399274;19;20401;-93
2023/07/05 10:10:42;;;;;;;4.27;2.13;;;;;;;14.06;100.00;95855.13;7402088;19;20454;-92
2023/07/05 10:13:15;;;;;;;3.93;2.13;;;;;;;14.28;100.00;95913.91;7399876;19;20369;-93
2023/07/05 10:15:45;;;;;;;3.20;1.97;;;;;;;14.79;100.00;95959.44;7398862;19;20400;-92
2023/07/05 10:18:37;;;;;;;2.47;2.27;;;;;;;14.05;100.00;95826.25;7399444;19;20438;-93
2023/07/05 10:21:18;;;;;;;4.70;2.37;;;;;;;15.26;100.00;96017.44;7400523;19;20404;-91
2023/07/05 10:23:47;;;;;;;2.03;1.30;;;;;;;14.73;100.00;95944.91;7399114;19;20786;-91
2023/07/05 10:26:17;;;;;;;2.40;1.80;;;;;;;14.72;100.00;95965.44;7399265;19;20933;-93
2023/07/05 10:28:46;;;;;;;4.87;2.40;;;;;;;14.63;100.00;95956.19;7394647;19;20427;-92
2023/07/05 10:31:30;;;;;;;3.20;2.40;;;;;;;14.63;100.00;95938.34;7402507;19;20735;-92
2023/07/05 10:34:07;;;;;;;2.73;2.47;;;;;;;14.70;100.00;95941.09;7399862;19;20380;-93
2023/07/05 10:36:44;;;;;;;2.93;2.03;;;;;;;14.47;100.00;95905.84;7400298;19;20389;-93
2023/07/05 10:39:11;;;;;;;3.17;2.23;;;;;;;14.25;100.00;95880.06;7398056;19;20392;-92
2023/07/05 10:41:40;;;;;;;5.33;2.20;;;;;;;15.12;100.00;95992.53;7395956;19;20420;-93
2023/07/05 10:44:27;;;;;;;2.23;1.90;;;;;;;14.67;100.00;95904.53;7398789;19;20347;-93
2023/07/05 10:46:56;;;;;;;3.30;1.80;;;;;;;15.77;100.00;96043.50;7397165;19;20419;-91
2023/07/05 10:49:29;;;;;;;4.13;2.10;;;;;;;15.39;100.00;95980.66;7399486;19;20378;-92
2023/07/05 10:52:01;;;;;;;5.10;1.80;;;;;;;15.54;100.00;95997.53;7398838;19;20375;-92
2023/07/05 10:54:35;;;;;;;1.73;1.63;;;;;;;15.09;100.00;95924.81;7400502;19;20920;-92
2023/07/05 10:57:13;;;;;;;2.73;1.60;;;;;;;15.53;100.00;95985.34;7396660;19;20417;-91
2023/07/05 10:59:46;;;;;;;2.10;1.90;;;;;;;15.94;100.00;96037.56;7399413;19;20365;-92
2023/07/05 11:02:32;;;;;;;1.70;1.60;;;;;;;15.95;100.00;96049.00;7401509;19;20390;-93
2023/07/05 11:05:02;;;;;;;4.20;2.20;;;;;;;15.52;100.00;96000.59;7398267;19;20396;-93
2023/07/05 11:07:33;;;;;;;11.37;7.70;;;;;;;15.37;100.00;95946.38;7399620;19;20501;-92
2023/07/05 11:10:00;;;;;;;37.70;24.53;;;;;;;15.34;100.00;95967.66;7399806;19;20382;-91
2023/07/05 11:12:29;;;;;;;45.60;31.50;;;;;;;15.77;100.00;95995.53;7397812;19;20398;-91
2023/07/05 11:14:58;;;;;;;35.80;24.27;;;;;;;15.90;100.00;96002.09;7399190;19;20370;-92
2023/07/05 11:17:35;;;;;;;32.43;23.00;;;;;;;15.65;100.00;95959.25;7396378;19;20493;-92
2023/07/05 11:20:23;;;;;;;25.03;16.87;;;;;;;16.07;100.00;96040.72;7398349;19;20408;-92
2023/07/05 11:22:50;;;;;;;24.73;14.93;;;;;;;15.13;100.00;95893.63;7417876;19;20405;-92
2023/07/05 11:25:18;;;;;;;14.00;9.80;;;;;;;15.84;100.00;95995.56;7403156;19;20413;-92
2023/07/05 11:27:53;;;;;;;11.03;9.53;;;;;;;16.24;100.00;96039.31;7397310;19;20370;-92
2023/07/05 11:30:43;;;;;;;12.47;9.43;;;;;;;16.35;100.00;96056.19;7397968;19;20393;-92
2023/07/05 11:33:10;;;;;;;19.20;12.90;;;;;;;16.21;100.00;96037.41;7397451;19;20394;-92
2023/07/05 11:35:49;;;;;;;16.00;11.07;;;;;;;16.04;100.00;96003.34;7399695;19;20400;-92
2023/07/05 11:38:35;;;;;;;24.80;15.53;;;;;;;16.48;100.00;96044.09;7430273;19;20451;-90